sensor_id;sensor_type;location;lat;lon;timestamp;P1;durP1;ratioP1;P2;durP2;ratioP2
44110;SDS011;29774;52.664;5.074;2023-05-07T00:01:53;14.90;;;13.27;;
44110;SDS011;29774;52.664;5.074;2023-05-07T00:04:18;14.40;;;12.93;;
44110;SDS011;29774;52.664;5.074;2023-05-07T00:06:44;15.18;;;13.45;;
44110;SDS011;29774;52.664;5.074;2023-05-07T00:09:10;16.15;;;13.40;;
44110;SDS011;29774;52.664;5.074;2023-05-07T00:11:35;16.15;;;13.57;;
44110;SDS011;29774;52.664;5.074;2023-05-07T00:14:01;17.50;;;14.10;;
44110;SDS011;29774;52.664;5.074;2023-05-07T00:16:26;17.75;;;14.73;;
44110;SDS011;29774;52.664;5.074;2023-05-07T00:18:52;16.42;;;14.73;;
44110;SDS011;29774;52.664;5.074;2023-05-07T00:21:18;16.52;;;14.70;;
44110;SDS011;29774;52.664;5.074;2023-05-07T00:23:44;16.40;;;14.13;;
44110;SDS011;29774;52.664;5.074;2023-05-07T00:26:09;17.40;;;15.60;;
44110;SDS011;29774;52.664;5.074;2023-05-07T00:28:35;16.42;;;14.80;;
44110;SDS011;29774;52.664;5.074;2023-05-07T00:31:01;16.75;;;15.00;;
44110;SDS011;29774;52.664;5.074;2023-05-07T00:33:26;17.02;;;15.20;;
44110;SDS011;29774;52.664;5.074;2023-05-07T00:35:52;17.35;;;14.82;;
44110;SDS011;29774;52.664;5.074;2023-05-07T00:38:19;16.38;;;14.45;;
44110;SDS011;29774;52.664;5.074;2023-05-07T00:40:45;18.10;;;14.85;;
44110;SDS011;29774;52.664;5.074;2023-05-07T00:43:10;18.30;;;15.70;;
44110;SDS011;29774;52.664;5.074;2023-05-07T00:45:37;16.90;;;14.18;;
44110;SDS011;29774;52.664;5.074;2023-05-07T00:48:03;18.80;;;16.50;;
44110;SDS011;29774;52.664;5.074;2023-05-07T00:50:30;17.80;;;15.90;;
44110;SDS011;29774;52.664;5.074;2023-05-07T00:52:57;17.55;;;15.30;;
44110;SDS011;29774;52.664;5.074;2023-05-07T00:55:24;15.93;;;14.25;;
44110;SDS011;29774;52.664;5.074;2023-05-07T00:57:50;18.70;;;15.52;;
44110;SDS011;29774;52.664;5.074;2023-05-07T01:00:16;16.42;;;14.63;;
44110;SDS011;29774;52.664;5.074;2023-05-07T01:02:43;18.52;;;15.25;;
44110;SDS011;29774;52.664;5.074;2023-05-07T01:05:12;16.45;;;13.98;;
44110;SDS011;29774;52.664;5.074;2023-05-07T01:07:40;19.45;;;15.15;;
44110;SDS011;29774;52.664;5.074;2023-05-07T01:10:07;19.10;;;14.20;;
44110;SDS011;29774;52.664;5.074;2023-05-07T01:12:35;17.27;;;14.55;;
44110;SDS011;29774;52.664;5.074;2023-05-07T01:15:02;19.00;;;13.30;;
44110;SDS011;29774;52.664;5.074;2023-05-07T01:17:29;14.30;;;12.80;;
44110;SDS011;29774;52.664;5.074;2023-05-07T01:19:59;16.63;;;13.32;;
44110;SDS011;29774;52.664;5.074;2023-05-07T01:22:29;16.85;;;13.27;;
44110;SDS011;29774;52.664;5.074;2023-05-07T01:24:58;18.92;;;14.20;;
44110;SDS011;29774;52.664;5.074;2023-05-07T01:27:26;14.93;;;13.43;;
44110;SDS011;29774;52.664;5.074;2023-05-07T01:29:52;14.30;;;12.80;;
44110;SDS011;29774;52.664;5.074;2023-05-07T01:32:21;16.55;;;13.55;;
44110;SDS011;29774;52.664;5.074;2023-05-07T01:35:10;13.68;;;12.25;;
44110;SDS011;29774;52.664;5.074;2023-05-07T01:37:37;16.98;;;12.40;;
44110;SDS011;29774;52.664;5.074;2023-05-07T01:40:04;15.50;;;12.60;;
44110;SDS011;29774;52.664;5.074;2023-05-07T01:42:32;13.98;;;12.55;;
44110;SDS011;29774;52.664;5.074;2023-05-07T01:44:57;15.25;;;11.95;;
44110;SDS011;29774;52.664;5.074;2023-05-07T01:47:23;12.30;;;11.05;;
44110;SDS011;29774;52.664;5.074;2023-05-07T01:49:50;14.27;;;11.07;;
44110;SDS011;29774;52.664;5.074;2023-05-07T01:52:15;11.50;;;9.88;;
44110;SDS011;29774;52.664;5.074;2023-05-07T01:54:41;10.90;;;9.70;;
44110;SDS011;29774;52.664;5.074;2023-05-07T01:57:07;10.32;;;9.32;;
44110;SDS011;29774;52.664;5.074;2023-05-07T01:59:33;11.60;;;10.35;;
44110;SDS011;29774;52.664;5.074;2023-05-07T02:01:58;10.93;;;9.55;;
44110;SDS011;29774;52.664;5.074;2023-05-07T02:04:24;12.40;;;9.48;;
44110;SDS011;29774;52.664;5.074;2023-05-07T02:06:50;11.75;;;9.45;;
44110;SDS011;29774;52.664;5.074;2023-05-07T02:09:15;10.73;;;9.63;;
44110;SDS011;29774;52.664;5.074;2023-05-07T02:11:41;10.85;;;8.95;;
44110;SDS011;29774;52.664;5.074;2023-05-07T02:14:06;9.27;;;8.38;;
44110;SDS011;29774;52.664;5.074;2023-05-07T02:16:32;9.10;;;7.68;;
44110;SDS011;29774;52.664;5.074;2023-05-07T02:18:57;8.75;;;7.85;;
44110;SDS011;29774;52.664;5.074;2023-05-07T02:21:23;9.13;;;7.60;;
44110;SDS011;29774;52.664;5.074;2023-05-07T02:23:50;9.63;;;7.53;;
44110;SDS011;29774;52.664;5.074;2023-05-07T02:26:15;10.20;;;7.70;;
44110;SDS011;29774;52.664;5.074;2023-05-07T02:28:41;8.23;;;7.43;;
44110;SDS011;29774;52.664;5.074;2023-05-07T02:31:06;8.13;;;7.40;;
44110;SDS011;29774;52.664;5.074;2023-05-07T02:33:32;7.80;;;7.00;;
44110;SDS011;29774;52.664;5.074;2023-05-07T02:36:06;9.45;;;6.93;;
44110;SDS011;29774;52.664;5.074;2023-05-07T02:38:35;8.50;;;7.07;;
44110;SDS011;29774;52.664;5.074;2023-05-07T02:41:01;10.38;;;6.85;;
44110;SDS011;29774;52.664;5.074;2023-05-07T02:43:27;9.63;;;7.57;;
44110;SDS011;29774;52.664;5.074;2023-05-07T02:46:05;9.40;;;6.85;;
44110;SDS011;29774;52.664;5.074;2023-05-07T02:48:33;8.80;;;7.90;;
44110;SDS011;29774;52.664;5.074;2023-05-07T02:50:59;9.90;;;7.85;;
44110;SDS011;29774;52.664;5.074;2023-05-07T02:53:25;11.73;;;7.60;;
44110;SDS011;29774;52.664;5.074;2023-05-07T02:55:58;8.63;;;7.72;;
44110;SDS011;29774;52.664;5.074;2023-05-07T02:58:25;8.07;;;7.25;;
44110;SDS011;29774;52.664;5.074;2023-05-07T03:00:51;8.05;;;7.25;;
44110;SDS011;29774;52.664;5.074;2023-05-07T03:03:17;8.38;;;7.55;;
44110;SDS011;29774;52.664;5.074;2023-05-07T03:05:43;10.35;;;7.32;;
44110;SDS011;29774;52.664;5.074;2023-05-07T03:08:09;7.63;;;6.82;;
44110;SDS011;29774;52.664;5.074;2023-05-07T03:10:35;7.93;;;7.18;;
44110;SDS011;29774;52.664;5.074;2023-05-07T03:13:01;8.65;;;7.10;;
44110;SDS011;29774;52.664;5.074;2023-05-07T03:15:28;8.32;;;7.05;;
44110;SDS011;29774;52.664;5.074;2023-05-07T03:17:54;7.93;;;7.13;;
44110;SDS011;29774;52.664;5.074;2023-05-07T03:20:20;11.48;;;7.50;;
44110;SDS011;29774;52.664;5.074;2023-05-07T03:22:46;7.65;;;7.05;;
44110;SDS011;29774;52.664;5.074;2023-05-07T03:25:11;7.57;;;6.80;;
44110;SDS011;29774;52.664;5.074;2023-05-07T03:27:37;8.35;;;7.15;;
44110;SDS011;29774;52.664;5.074;2023-05-07T03:30:03;7.03;;;6.38;;
44110;SDS011;29774;52.664;5.074;2023-05-07T03:32:29;6.97;;;6.38;;
44110;SDS011;29774;52.664;5.074;2023-05-07T03:34:55;8.18;;;6.10;;
44110;SDS011;29774;52.664;5.074;2023-05-07T03:37:20;8.18;;;6.97;;
44110;SDS011;29774;52.664;5.074;2023-05-07T03:39:46;8.05;;;7.03;;
44110;SDS011;29774;52.664;5.074;2023-05-07T03:42:12;7.45;;;6.75;;
44110;SDS011;29774;52.664;5.074;2023-05-07T03:44:38;6.85;;;5.97;;
44110;SDS011;29774;52.664;5.074;2023-05-07T03:47:03;8.10;;;7.07;;
44110;SDS011;29774;52.664;5.074;2023-05-07T03:49:29;7.88;;;6.90;;
44110;SDS011;29774;52.664;5.074;2023-05-07T03:51:54;7.72;;;6.78;;
44110;SDS011;29774;52.664;5.074;2023-05-07T03:54:20;7.85;;;6.63;;
44110;SDS011;29774;52.664;5.074;2023-05-07T03:56:46;7.65;;;6.55;;
44110;SDS011;29774;52.664;5.074;2023-05-07T03:59:12;7.68;;;6.22;;
44110;SDS011;29774;52.664;5.074;2023-05-07T04:01:38;6.93;;;6.32;;
44110;SDS011;29774;52.664;5.074;2023-05-07T04:04:03;7.28;;;5.65;;
44110;SDS011;29774;52.664;5.074;2023-05-07T04:06:29;6.70;;;6.05;;
44110;SDS011;29774;52.664;5.074;2023-05-07T04:08:55;7.55;;;6.60;;
44110;SDS011;29774;52.664;5.074;2023-05-07T04:11:21;7.43;;;6.50;;
44110;SDS011;29774;52.664;5.074;2023-05-07T04:13:47;7.07;;;6.07;;
44110;SDS011;29774;52.664;5.074;2023-05-07T04:16:12;8.20;;;6.20;;
44110;SDS011;29774;52.664;5.074;2023-05-07T04:18:38;8.48;;;6.40;;
44110;SDS011;29774;52.664;5.074;2023-05-07T04:21:04;6.95;;;6.25;;
44110;SDS011;29774;52.664;5.074;2023-05-07T04:23:30;7.20;;;6.40;;
44110;SDS011;29774;52.664;5.074;2023-05-07T04:25:56;7.72;;;6.47;;
44110;SDS011;29774;52.664;5.074;2023-05-07T04:28:22;7.60;;;6.03;;
44110;SDS011;29774;52.664;5.074;2023-05-07T04:30:48;7.95;;;6.95;;
44110;SDS011;29774;52.664;5.074;2023-05-07T04:33:14;8.02;;;7.15;;
44110;SDS011;29774;52.664;5.074;2023-05-07T04:35:41;7.70;;;6.90;;
44110;SDS011;29774;52.664;5.074;2023-05-07T04:38:07;11.23;;;6.78;;
44110;SDS011;29774;52.664;5.074;2023-05-07T04:40:33;10.30;;;7.45;;
44110;SDS011;29774;52.664;5.074;2023-05-07T04:43:00;10.18;;;7.25;;
44110;SDS011;29774;52.664;5.074;2023-05-07T04:45:26;8.40;;;7.70;;
44110;SDS011;29774;52.664;5.074;2023-05-07T04:47:52;8.07;;;7.28;;
44110;SDS011;29774;52.664;5.074;2023-05-07T04:50:17;8.48;;;7.57;;
44110;SDS011;29774;52.664;5.074;2023-05-07T04:52:44;8.43;;;7.57;;
44110;SDS011;29774;52.664;5.074;2023-05-07T04:55:10;9.00;;;7.53;;
44110;SDS011;29774;52.664;5.074;2023-05-07T04:57:36;8.13;;;7.32;;
44110;SDS011;29774;52.664;5.074;2023-05-07T05:00:03;8.57;;;7.80;;
44110;SDS011;29774;52.664;5.074;2023-05-07T05:02:29;9.00;;;7.80;;
44110;SDS011;29774;52.664;5.074;2023-05-07T05:04:55;12.65;;;9.32;;
44110;SDS011;29774;52.664;5.074;2023-05-07T05:07:20;11.43;;;9.05;;
44110;SDS011;29774;52.664;5.074;2023-05-07T05:09:46;12.98;;;10.38;;
44110;SDS011;29774;52.664;5.074;2023-05-07T05:12:11;11.90;;;10.68;;
44110;SDS011;29774;52.664;5.074;2023-05-07T05:14:37;12.50;;;11.13;;
44110;SDS011;29774;52.664;5.074;2023-05-07T05:17:03;13.52;;;12.13;;
44110;SDS011;29774;52.664;5.074;2023-05-07T05:19:28;14.27;;;12.93;;
44110;SDS011;29774;52.664;5.074;2023-05-07T05:21:54;14.63;;;13.10;;
44110;SDS011;29774;52.664;5.074;2023-05-07T05:24:20;16.80;;;15.05;;
44110;SDS011;29774;52.664;5.074;2023-05-07T05:26:45;15.40;;;13.90;;
44110;SDS011;29774;52.664;5.074;2023-05-07T05:29:11;19.48;;;14.68;;
44110;SDS011;29774;52.664;5.074;2023-05-07T05:31:36;17.27;;;15.27;;
44110;SDS011;29774;52.664;5.074;2023-05-07T05:34:02;16.85;;;15.25;;
44110;SDS011;29774;52.664;5.074;2023-05-07T05:36:28;18.73;;;16.77;;
44110;SDS011;29774;52.664;5.074;2023-05-07T05:38:55;18.50;;;16.52;;
44110;SDS011;29774;52.664;5.074;2023-05-07T05:41:20;19.45;;;17.38;;
44110;SDS011;29774;52.664;5.074;2023-05-07T05:43:46;18.70;;;16.60;;
44110;SDS011;29774;52.664;5.074;2023-05-07T05:46:12;18.25;;;16.35;;
44110;SDS011;29774;52.664;5.074;2023-05-07T05:48:37;22.35;;;20.15;;
44110;SDS011;29774;52.664;5.074;2023-05-07T05:51:03;20.60;;;18.48;;
44110;SDS011;29774;52.664;5.074;2023-05-07T05:53:28;21.08;;;18.92;;
44110;SDS011;29774;52.664;5.074;2023-05-07T05:55:54;21.02;;;17.95;;
44110;SDS011;29774;52.664;5.074;2023-05-07T05:58:20;19.52;;;17.67;;
44110;SDS011;29774;52.664;5.074;2023-05-07T06:00:46;18.05;;;16.25;;
44110;SDS011;29774;52.664;5.074;2023-05-07T06:03:13;18.88;;;16.88;;
44110;SDS011;29774;52.664;5.074;2023-05-07T06:05:38;17.88;;;15.98;;
44110;SDS011;29774;52.664;5.074;2023-05-07T06:08:04;18.52;;;15.93;;
44110;SDS011;29774;52.664;5.074;2023-05-07T06:10:30;17.35;;;15.48;;
44110;SDS011;29774;52.664;5.074;2023-05-07T06:12:55;17.75;;;15.50;;
44110;SDS011;29774;52.664;5.074;2023-05-07T06:15:21;18.00;;;15.70;;
44110;SDS011;29774;52.664;5.074;2023-05-07T06:17:47;16.83;;;15.10;;
44110;SDS011;29774;52.664;5.074;2023-05-07T06:20:13;17.90;;;15.95;;
44110;SDS011;29774;52.664;5.074;2023-05-07T06:22:39;16.42;;;14.25;;
44110;SDS011;29774;52.664;5.074;2023-05-07T06:25:05;15.65;;;13.95;;
44110;SDS011;29774;52.664;5.074;2023-05-07T06:27:31;17.02;;;15.23;;
44110;SDS011;29774;52.664;5.074;2023-05-07T06:29:57;17.10;;;15.38;;
44110;SDS011;29774;52.664;5.074;2023-05-07T06:32:22;17.73;;;14.68;;
44110;SDS011;29774;52.664;5.074;2023-05-07T06:34:48;17.05;;;14.65;;
44110;SDS011;29774;52.664;5.074;2023-05-07T06:37:13;18.40;;;15.18;;
44110;SDS011;29774;52.664;5.074;2023-05-07T06:39:39;19.80;;;16.38;;
44110;SDS011;29774;52.664;5.074;2023-05-07T06:42:05;16.40;;;14.60;;
44110;SDS011;29774;52.664;5.074;2023-05-07T06:44:31;16.55;;;14.70;;
44110;SDS011;29774;52.664;5.074;2023-05-07T06:46:56;18.35;;;14.75;;
44110;SDS011;29774;52.664;5.074;2023-05-07T06:49:22;18.65;;;15.48;;
44110;SDS011;29774;52.664;5.074;2023-05-07T06:51:48;18.98;;;15.63;;
44110;SDS011;29774;52.664;5.074;2023-05-07T06:54:13;19.98;;;15.90;;
44110;SDS011;29774;52.664;5.074;2023-05-07T06:56:39;18.05;;;14.38;;
44110;SDS011;29774;52.664;5.074;2023-05-07T06:59:04;17.13;;;14.65;;
44110;SDS011;29774;52.664;5.074;2023-05-07T07:01:31;18.33;;;15.75;;
44110;SDS011;29774;52.664;5.074;2023-05-07T07:03:57;18.55;;;15.48;;
44110;SDS011;29774;52.664;5.074;2023-05-07T07:06:22;17.60;;;15.38;;
44110;SDS011;29774;52.664;5.074;2023-05-07T07:08:48;15.90;;;14.00;;
44110;SDS011;29774;52.664;5.074;2023-05-07T07:11:14;19.95;;;15.60;;
44110;SDS011;29774;52.664;5.074;2023-05-07T07:13:40;18.50;;;14.85;;
44110;SDS011;29774;52.664;5.074;2023-05-07T07:16:06;18.02;;;15.48;;
44110;SDS011;29774;52.664;5.074;2023-05-07T07:18:32;16.75;;;12.23;;
44110;SDS011;29774;52.664;5.074;2023-05-07T07:20:57;19.95;;;16.13;;
44110;SDS011;29774;52.664;5.074;2023-05-07T07:23:23;17.65;;;14.70;;
44110;SDS011;29774;52.664;5.074;2023-05-07T07:25:49;19.73;;;15.73;;
44110;SDS011;29774;52.664;5.074;2023-05-07T07:28:15;21.08;;;16.33;;
44110;SDS011;29774;52.664;5.074;2023-05-07T07:30:41;20.02;;;16.27;;
44110;SDS011;29774;52.664;5.074;2023-05-07T07:33:07;17.42;;;15.50;;
44110;SDS011;29774;52.664;5.074;2023-05-07T07:35:33;18.00;;;15.82;;
44110;SDS011;29774;52.664;5.074;2023-05-07T07:37:58;19.98;;;16.17;;
44110;SDS011;29774;52.664;5.074;2023-05-07T07:40:24;18.23;;;15.15;;
44110;SDS011;29774;52.664;5.074;2023-05-07T07:42:50;21.55;;;16.50;;
44110;SDS011;29774;52.664;5.074;2023-05-07T07:45:16;20.00;;;16.50;;
44110;SDS011;29774;52.664;5.074;2023-05-07T07:47:42;21.23;;;16.98;;
44110;SDS011;29774;52.664;5.074;2023-05-07T07:50:07;21.42;;;16.67;;
44110;SDS011;29774;52.664;5.074;2023-05-07T07:52:34;21.63;;;18.15;;
44110;SDS011;29774;52.664;5.074;2023-05-07T07:54:59;21.75;;;17.85;;
44110;SDS011;29774;52.664;5.074;2023-05-07T07:57:25;18.60;;;16.60;;
44110;SDS011;29774;52.664;5.074;2023-05-07T07:59:51;19.02;;;16.65;;
44110;SDS011;29774;52.664;5.074;2023-05-07T08:02:17;18.70;;;16.75;;
44110;SDS011;29774;52.664;5.074;2023-05-07T08:04:43;21.20;;;17.73;;
44110;SDS011;29774;52.664;5.074;2023-05-07T08:07:09;20.15;;;17.38;;
44110;SDS011;29774;52.664;5.074;2023-05-07T08:09:36;19.77;;;16.40;;
44110;SDS011;29774;52.664;5.074;2023-05-07T08:12:02;20.95;;;17.27;;
44110;SDS011;29774;52.664;5.074;2023-05-07T08:14:28;20.58;;;17.48;;
44110;SDS011;29774;52.664;5.074;2023-05-07T08:16:54;19.15;;;16.05;;
44110;SDS011;29774;52.664;5.074;2023-05-07T08:19:20;18.92;;;16.95;;
44110;SDS011;29774;52.664;5.074;2023-05-07T08:21:46;19.60;;;17.42;;
44110;SDS011;29774;52.664;5.074;2023-05-07T08:24:15;16.92;;;15.05;;
44110;SDS011;29774;52.664;5.074;2023-05-07T08:26:43;20.52;;;18.00;;
44110;SDS011;29774;52.664;5.074;2023-05-07T08:29:09;21.35;;;18.75;;
44110;SDS011;29774;52.664;5.074;2023-05-07T08:31:34;22.30;;;18.00;;
44110;SDS011;29774;52.664;5.074;2023-05-07T08:34:00;20.50;;;18.27;;
44110;SDS011;29774;52.664;5.074;2023-05-07T08:36:26;18.95;;;16.95;;
44110;SDS011;29774;52.664;5.074;2023-05-07T08:38:53;20.48;;;17.65;;
44110;SDS011;29774;52.664;5.074;2023-05-07T08:41:19;20.02;;;16.48;;
44110;SDS011;29774;52.664;5.074;2023-05-07T08:43:47;19.60;;;17.50;;
44110;SDS011;29774;52.664;5.074;2023-05-07T08:46:21;22.08;;;18.13;;
44110;SDS011;29774;52.664;5.074;2023-05-07T08:48:48;18.30;;;16.15;;
44110;SDS011;29774;52.664;5.074;2023-05-07T08:51:16;20.75;;;17.63;;
44110;SDS011;29774;52.664;5.074;2023-05-07T08:53:46;22.67;;;19.02;;
44110;SDS011;29774;52.664;5.074;2023-05-07T08:56:13;21.13;;;18.00;;
44110;SDS011;29774;52.664;5.074;2023-05-07T08:58:40;20.60;;;18.38;;
44110;SDS011;29774;52.664;5.074;2023-05-07T09:01:07;19.88;;;17.50;;
44110;SDS011;29774;52.664;5.074;2023-05-07T09:03:34;19.13;;;16.73;;
44110;SDS011;29774;52.664;5.074;2023-05-07T09:06:02;22.70;;;18.85;;
44110;SDS011;29774;52.664;5.074;2023-05-07T09:08:28;20.92;;;17.33;;
44110;SDS011;29774;52.664;5.074;2023-05-07T09:10:53;20.05;;;17.80;;
44110;SDS011;29774;52.664;5.074;2023-05-07T09:13:19;19.58;;;17.20;;
44110;SDS011;29774;52.664;5.074;2023-05-07T09:15:45;24.52;;;18.15;;
44110;SDS011;29774;52.664;5.074;2023-05-07T09:18:11;20.35;;;17.27;;
44110;SDS011;29774;52.664;5.074;2023-05-07T09:20:37;21.40;;;15.90;;
44110;SDS011;29774;52.664;5.074;2023-05-07T09:23:03;20.38;;;18.17;;
44110;SDS011;29774;52.664;5.074;2023-05-07T09:25:32;21.35;;;17.10;;
44110;SDS011;29774;52.664;5.074;2023-05-07T09:27:59;19.65;;;16.98;;
44110;SDS011;29774;52.664;5.074;2023-05-07T09:30:29;18.75;;;16.33;;
44110;SDS011;29774;52.664;5.074;2023-05-07T09:32:56;20.15;;;16.52;;
44110;SDS011;29774;52.664;5.074;2023-05-07T09:35:23;18.98;;;15.75;;
44110;SDS011;29774;52.664;5.074;2023-05-07T09:37:52;18.77;;;16.17;;
44110;SDS011;29774;52.664;5.074;2023-05-07T09:40:23;20.45;;;16.95;;
44110;SDS011;29774;52.664;5.074;2023-05-07T09:42:51;19.90;;;17.80;;
44110;SDS011;29774;52.664;5.074;2023-05-07T09:47:54;20.15;;;17.38;;
44110;SDS011;29774;52.664;5.074;2023-05-07T09:50:21;18.35;;;16.17;;
44110;SDS011;29774;52.664;5.074;2023-05-07T09:52:55;19.02;;;16.90;;
44110;SDS011;29774;52.664;5.074;2023-05-07T09:55:22;17.55;;;13.15;;
44110;SDS011;29774;52.664;5.074;2023-05-07T09:57:50;15.48;;;13.77;;
44110;SDS011;29774;52.664;5.074;2023-05-07T10:00:18;17.20;;;15.25;;
44110;SDS011;29774;52.664;5.074;2023-05-07T10:02:45;20.40;;;17.33;;
44110;SDS011;29774;52.664;5.074;2023-05-07T10:05:17;19.48;;;17.15;;
44110;SDS011;29774;52.664;5.074;2023-05-07T10:07:44;19.58;;;16.75;;
44110;SDS011;29774;52.664;5.074;2023-05-07T10:10:10;18.83;;;16.33;;
44110;SDS011;29774;52.664;5.074;2023-05-07T10:12:36;18.33;;;13.77;;
44110;SDS011;29774;52.664;5.074;2023-05-07T10:15:06;17.35;;;14.88;;
44110;SDS011;29774;52.664;5.074;2023-05-07T10:17:36;16.33;;;14.23;;
44110;SDS011;29774;52.664;5.074;2023-05-07T10:20:03;17.65;;;15.38;;
44110;SDS011;29774;52.664;5.074;2023-05-07T10:22:38;17.23;;;15.38;;
44110;SDS011;29774;52.664;5.074;2023-05-07T10:25:14;16.85;;;14.70;;
44110;SDS011;29774;52.664;5.074;2023-05-07T10:27:47;22.35;;;16.95;;
44110;SDS011;29774;52.664;5.074;2023-05-07T10:30:22;20.17;;;16.67;;
44110;SDS011;29774;52.664;5.074;2023-05-07T10:32:59;10.05;;;8.63;;
44110;SDS011;29774;52.664;5.074;2023-05-07T10:35:31;16.60;;;14.63;;
44110;SDS011;29774;52.664;5.074;2023-05-07T10:38:03;16.35;;;13.02;;
44110;SDS011;29774;52.664;5.074;2023-05-07T10:40:30;17.15;;;14.93;;
44110;SDS011;29774;52.664;5.074;2023-05-07T10:42:56;18.05;;;15.90;;
44110;SDS011;29774;52.664;5.074;2023-05-07T10:45:26;17.30;;;15.40;;
44110;SDS011;29774;52.664;5.074;2023-05-07T10:50:34;19.60;;;15.50;;
44110;SDS011;29774;52.664;5.074;2023-05-07T10:55:45;19.65;;;16.52;;
44110;SDS011;29774;52.664;5.074;2023-05-07T11:00:55;15.75;;;10.95;;
44110;SDS011;29774;52.664;5.074;2023-05-07T11:03:26;18.55;;;14.00;;
44110;SDS011;29774;52.664;5.074;2023-05-07T11:14:09;17.60;;;15.65;;
44110;SDS011;29774;52.664;5.074;2023-05-07T11:16:35;19.08;;;15.18;;
44110;SDS011;29774;52.664;5.074;2023-05-07T11:19:03;18.70;;;14.82;;
44110;SDS011;29774;52.664;5.074;2023-05-07T11:21:38;17.27;;;15.48;;
44110;SDS011;29774;52.664;5.074;2023-05-07T11:24:08;16.45;;;14.35;;
44110;SDS011;29774;52.664;5.074;2023-05-07T11:26:45;15.23;;;13.55;;
44110;SDS011;29774;52.664;5.074;2023-05-07T11:29:20;18.63;;;15.52;;
44110;SDS011;29774;52.664;5.074;2023-05-07T11:31:50;17.13;;;13.88;;
44110;SDS011;29774;52.664;5.074;2023-05-07T11:34:23;16.75;;;14.95;;
44110;SDS011;29774;52.664;5.074;2023-05-07T11:36:50;16.95;;;15.15;;
44110;SDS011;29774;52.664;5.074;2023-05-07T11:39:26;18.13;;;15.25;;
44110;SDS011;29774;52.664;5.074;2023-05-07T11:41:53;18.67;;;15.50;;
44110;SDS011;29774;52.664;5.074;2023-05-07T11:44:19;18.00;;;15.93;;
44110;SDS011;29774;52.664;5.074;2023-05-07T11:46:44;17.10;;;14.80;;
44110;SDS011;29774;52.664;5.074;2023-05-07T11:49:10;17.27;;;14.48;;
44110;SDS011;29774;52.664;5.074;2023-05-07T11:51:36;18.88;;;15.10;;
44110;SDS011;29774;52.664;5.074;2023-05-07T11:54:04;15.27;;;13.65;;
44110;SDS011;29774;52.664;5.074;2023-05-07T11:56:33;16.92;;;14.63;;
44110;SDS011;29774;52.664;5.074;2023-05-07T11:59:00;15.65;;;13.93;;
44110;SDS011;29774;52.664;5.074;2023-05-07T12:01:26;16.10;;;13.82;;
44110;SDS011;29774;52.664;5.074;2023-05-07T12:03:51;19.48;;;16.10;;
44110;SDS011;29774;52.664;5.074;2023-05-07T12:06:17;16.02;;;14.18;;
44110;SDS011;29774;52.664;5.074;2023-05-07T12:08:44;14.23;;;12.55;;
44110;SDS011;29774;52.664;5.074;2023-05-07T12:11:13;13.77;;;11.77;;
44110;SDS011;29774;52.664;5.074;2023-05-07T12:13:41;15.30;;;11.90;;
44110;SDS011;29774;52.664;5.074;2023-05-07T12:16:07;12.73;;;10.88;;
44110;SDS011;29774;52.664;5.074;2023-05-07T12:18:36;14.82;;;12.57;;
44110;SDS011;29774;52.664;5.074;2023-05-07T12:21:03;12.43;;;10.80;;
44110;SDS011;29774;52.664;5.074;2023-05-07T12:23:30;14.30;;;12.52;;
44110;SDS011;29774;52.664;5.074;2023-05-07T12:25:56;17.45;;;13.35;;
44110;SDS011;29774;52.664;5.074;2023-05-07T12:28:22;13.38;;;11.98;;
44110;SDS011;29774;52.664;5.074;2023-05-07T12:30:48;15.13;;;12.30;;
44110;SDS011;29774;52.664;5.074;2023-05-07T12:33:18;14.73;;;11.75;;
44110;SDS011;29774;52.664;5.074;2023-05-07T12:35:48;12.77;;;10.15;;
44110;SDS011;29774;52.664;5.074;2023-05-07T12:38:14;12.10;;;10.82;;
44110;SDS011;29774;52.664;5.074;2023-05-07T12:40:46;11.63;;;9.93;;
44110;SDS011;29774;52.664;5.074;2023-05-07T12:43:16;15.35;;;13.25;;
44110;SDS011;29774;52.664;5.074;2023-05-07T12:45:46;18.45;;;13.73;;
44110;SDS011;29774;52.664;5.074;2023-05-07T12:48:14;17.27;;;14.75;;
44110;SDS011;29774;52.664;5.074;2023-05-07T12:50:40;16.75;;;14.02;;
44110;SDS011;29774;52.664;5.074;2023-05-07T12:53:06;16.88;;;12.88;;
44110;SDS011;29774;52.664;5.074;2023-05-07T12:55:40;17.08;;;13.10;;
44110;SDS011;29774;52.664;5.074;2023-05-07T12:58:07;16.77;;;14.35;;
44110;SDS011;29774;52.664;5.074;2023-05-07T13:00:34;18.38;;;14.18;;
44110;SDS011;29774;52.664;5.074;2023-05-07T13:02:59;13.50;;;10.98;;
44110;SDS011;29774;52.664;5.074;2023-05-07T13:05:25;19.17;;;15.73;;
44110;SDS011;29774;52.664;5.074;2023-05-07T13:07:54;17.20;;;14.20;;
44110;SDS011;29774;52.664;5.074;2023-05-07T13:10:21;19.73;;;14.32;;
44110;SDS011;29774;52.664;5.074;2023-05-07T13:12:50;17.70;;;15.05;;
44110;SDS011;29774;52.664;5.074;2023-05-07T13:15:16;20.20;;;15.20;;
44110;SDS011;29774;52.664;5.074;2023-05-07T13:17:42;16.10;;;14.05;;
44110;SDS011;29774;52.664;5.074;2023-05-07T13:20:09;21.90;;;16.00;;
44110;SDS011;29774;52.664;5.074;2023-05-07T13:22:35;22.35;;;15.05;;
44110;SDS011;29774;52.664;5.074;2023-05-07T13:25:01;18.77;;;15.52;;
44110;SDS011;29774;52.664;5.074;2023-05-07T13:27:26;23.63;;;15.02;;
44110;SDS011;29774;52.664;5.074;2023-05-07T13:29:52;18.60;;;15.45;;
44110;SDS011;29774;52.664;5.074;2023-05-07T13:32:17;18.40;;;15.23;;
44110;SDS011;29774;52.664;5.074;2023-05-07T13:34:43;20.23;;;16.23;;
44110;SDS011;29774;52.664;5.074;2023-05-07T13:37:09;20.58;;;16.05;;
44110;SDS011;29774;52.664;5.074;2023-05-07T13:39:34;16.45;;;12.07;;
44110;SDS011;29774;52.664;5.074;2023-05-07T13:42:00;19.73;;;16.13;;
44110;SDS011;29774;52.664;5.074;2023-05-07T13:44:26;17.67;;;15.77;;
44110;SDS011;29774;52.664;5.074;2023-05-07T13:46:51;20.85;;;16.38;;
44110;SDS011;29774;52.664;5.074;2023-05-07T13:49:17;22.20;;;18.00;;
44110;SDS011;29774;52.664;5.074;2023-05-07T13:51:43;21.58;;;17.60;;
44110;SDS011;29774;52.664;5.074;2023-05-07T13:54:08;24.42;;;17.35;;
44110;SDS011;29774;52.664;5.074;2023-05-07T13:56:34;20.13;;;16.70;;
44110;SDS011;29774;52.664;5.074;2023-05-07T13:59:00;21.02;;;17.38;;
44110;SDS011;29774;52.664;5.074;2023-05-07T14:01:26;22.38;;;16.67;;
44110;SDS011;29774;52.664;5.074;2023-05-07T14:03:52;19.90;;;16.55;;
44110;SDS011;29774;52.664;5.074;2023-05-07T14:06:17;22.60;;;16.05;;
44110;SDS011;29774;52.664;5.074;2023-05-07T14:08:43;20.08;;;16.35;;
44110;SDS011;29774;52.664;5.074;2023-05-07T14:11:09;20.08;;;15.88;;
44110;SDS011;29774;52.664;5.074;2023-05-07T14:13:35;18.98;;;15.80;;
44110;SDS011;29774;52.664;5.074;2023-05-07T14:16:00;21.50;;;16.50;;
44110;SDS011;29774;52.664;5.074;2023-05-07T14:18:26;20.20;;;16.30;;
44110;SDS011;29774;52.664;5.074;2023-05-07T14:20:53;21.42;;;15.73;;
44110;SDS011;29774;52.664;5.074;2023-05-07T14:23:19;19.88;;;16.15;;
44110;SDS011;29774;52.664;5.074;2023-05-07T14:25:47;20.85;;;15.80;;
44110;SDS011;29774;52.664;5.074;2023-05-07T14:28:12;24.48;;;16.38;;
44110;SDS011;29774;52.664;5.074;2023-05-07T14:30:38;19.85;;;15.43;;
44110;SDS011;29774;52.664;5.074;2023-05-07T14:33:04;17.15;;;14.50;;
44110;SDS011;29774;52.664;5.074;2023-05-07T14:35:30;18.38;;;14.93;;
44110;SDS011;29774;52.664;5.074;2023-05-07T14:37:55;17.52;;;13.70;;
44110;SDS011;29774;52.664;5.074;2023-05-07T14:40:21;20.90;;;14.40;;
44110;SDS011;29774;52.664;5.074;2023-05-07T14:42:47;17.95;;;14.50;;